createdAt,value
2022-10-02T00:02:08.805Z,97520.91
2022-10-02T00:07:13.425Z,97518.78
2022-10-02T00:12:20.942Z,97511.91
2022-10-02T00:17:33.708Z,97512.22
2022-10-02T00:22:50.849Z,97507.34
2022-10-02T00:28:07.414Z,97509.00
2022-10-02T00:33:31.568Z,97500.81
2022-10-02T00:38:44.811Z,97509.59
2022-10-02T00:44:26.956Z,97512.00
2022-10-02T00:49:44.729Z,97499.16
2022-10-02T00:55:14.503Z,97495.63
2022-10-02T01:00:19.913Z,97491.91
2022-10-02T01:05:26.403Z,97494.97
2022-10-02T01:10:33.758Z,97496.38
2022-10-02T01:15:42.421Z,97487.13
2022-10-02T01:20:53.260Z,97494.03
2022-10-02T01:25:57.599Z,97474.13
2022-10-02T01:31:11.555Z,97488.25
2022-10-02T01:36:16.584Z,97479.56
2022-10-02T01:41:20.602Z,97487.25
2022-10-02T01:46:46.225Z,97474.53
2022-10-02T01:52:01.944Z,97476.25
2022-10-02T01:57:24.201Z,97482.31
2022-10-02T02:02:38.334Z,97483.53
2022-10-02T02:08:15.269Z,97482.22
2022-10-02T02:13:39.550Z,97479.47
2022-10-02T02:19:05.483Z,97484.44
2022-10-02T02:24:18.458Z,97483.63
2022-10-02T02:29:25.165Z,97480.41
2022-10-02T02:34:36.670Z,97477.69
2022-10-02T02:39:52.360Z,97488.88
2022-10-02T02:45:05.702Z,97485.34
2022-10-02T02:50:15.422Z,97482.44
2022-10-02T02:55:23.957Z,97478.59
2022-10-02T03:00:27.483Z,97468.78
2022-10-02T03:05:32.669Z,97470.72
2022-10-02T03:10:44.988Z,97471.31
2022-10-02T03:15:54.904Z,97479.00
2022-10-02T03:21:23.030Z,97479.59
2022-10-02T03:26:37.645Z,97477.16
2022-10-02T03:31:42.192Z,97478.59
2022-10-02T03:36:47.093Z,97474.53
2022-10-02T03:41:50.511Z,97473.22
2022-10-02T03:46:53.775Z,97476.56
2022-10-02T03:51:57.043Z,97476.84
2022-10-02T03:57:05.334Z,97472.84
2022-10-02T04:02:33.278Z,97481.31
2022-10-02T04:07:40.418Z,97481.59
2022-10-02T04:12:52.465Z,97490.31
2022-10-02T04:18:08.189Z,97486.38
2022-10-02T04:23:22.659Z,97496.34
2022-10-02T04:28:39.534Z,97492.94
2022-10-02T04:33:43.001Z,97497.19
2022-10-02T04:39:01.444Z,97489.97
2022-10-02T04:44:17.278Z,97498.66
2022-10-02T04:49:55.599Z,97491.59
2022-10-02T04:55:25.906Z,97486.44
2022-10-02T05:00:44.232Z,97499.53
2022-10-02T05:06:22.537Z,97499.88
2022-10-02T05:11:31.902Z,97505.03
2022-10-02T05:16:52.436Z,97504.22
2022-10-02T05:22:32.613Z,97498.69
2022-10-02T05:27:58.758Z,97502.53
2022-10-02T05:33:08.334Z,97501.19
2022-10-02T05:38:42.368Z,97508.88
2022-10-02T05:44:10.839Z,97514.16
2022-10-02T05:49:33.884Z,97520.75
2022-10-02T05:55:22.475Z,97514.97
2022-10-02T06:01:07.291Z,97517.03
2022-10-02T06:06:23.230Z,97513.63
2022-10-02T06:11:35.608Z,97509.59
2022-10-02T06:16:51.833Z,97514.47
2022-10-02T06:22:06.473Z,97513.41
2022-10-02T06:27:21.451Z,97519.03
2022-10-02T06:32:34.111Z,97523.56
2022-10-02T06:37:52.110Z,97513.34
2022-10-02T06:43:14.266Z,97509.00
2022-10-02T06:48:35.065Z,97509.28
2022-10-02T06:54:15.330Z,97503.19
2022-10-02T06:59:47.404Z,97500.94
2022-10-02T07:05:09.012Z,97495.00
2022-10-02T07:10:27.492Z,97498.25
2022-10-02T07:15:50.468Z,97500.38
2022-10-02T07:21:08.687Z,97493.34
2022-10-02T07:26:31.312Z,97491.91
2022-10-02T07:32:06.313Z,97487.56
2022-10-02T07:37:35.099Z,97480.81
2022-10-02T07:43:00.644Z,97474.06
2022-10-02T07:48:09.873Z,97478.25
2022-10-02T07:53:33.934Z,97471.78
2022-10-02T07:59:12.470Z,97468.25
2022-10-02T08:04:21.561Z,97460.44
2022-10-02T08:09:46.105Z,97466.06
2022-10-02T08:14:52.665Z,97464.00
2022-10-02T08:20:04.242Z,97468.84
2022-10-02T08:25:26.014Z,97470.91
2022-10-02T08:30:29.272Z,97469.16
2022-10-02T08:36:08.529Z,97475.44
2022-10-02T08:41:32.726Z,97470.41
2022-10-02T08:47:36.294Z,97448.25
2022-10-02T08:52:58.246Z,97444.38
2022-10-02T08:58:19.343Z,97443.69
2022-10-02T09:03:44.544Z,97442.84
2022-10-02T09:09:19.103Z,97430.06
2022-10-02T09:14:44.536Z,97425.44
2022-10-02T09:20:21.258Z,97416.38
2022-10-02T09:25:58.662Z,97405.84
2022-10-02T09:31:26.092Z,97393.06
2022-10-02T09:36:51.315Z,97377.66
2022-10-02T09:42:09.443Z,97376.00
2022-10-02T09:47:31.059Z,97371.72
2022-10-02T09:53:12.963Z,97373.50
2022-10-02T09:58:38.415Z,97360.78
2022-10-02T10:03:42.125Z,97357.44
2022-10-02T10:08:48.357Z,97353.06
2022-10-02T10:14:26.383Z,97354.09
2022-10-02T10:19:47.647Z,97342.63
2022-10-02T10:25:09.864Z,97343.13
2022-10-02T10:30:20.142Z,97343.06
2022-10-02T10:36:08.717Z,97331.06
2022-10-02T10:41:52.358Z,97324.78
2022-10-02T10:47:20.773Z,97325.78
2022-10-02T10:52:42.756Z,97323.22
2022-10-02T10:58:22.800Z,97314.56
2022-10-02T11:04:06.827Z,97312.84
2022-10-02T11:09:30.741Z,97303.78
2022-10-02T11:14:52.668Z,97288.63
2022-10-02T11:20:14.687Z,97290.06
2022-10-02T11:25:33.776Z,97287.63
2022-10-02T11:31:22.336Z,97276.13
2022-10-02T11:36:55.480Z,97270.22
2022-10-02T11:42:31.701Z,97264.88
2022-10-02T11:48:02.700Z,97257.31
2022-10-02T11:53:27.599Z,97250.47
2022-10-02T11:58:45.230Z,97246.53
2022-10-02T12:04:26.345Z,97240.38
2022-10-02T12:10:02.358Z,97239.09
2022-10-02T12:15:12.185Z,97238.31
2022-10-02T12:21:09.256Z,97228.97
2022-10-02T12:26:36.823Z,97226.41
2022-10-02T12:32:42.100Z,97219.47
2022-10-02T12:38:16.415Z,97215.19
2022-10-02T12:43:50.073Z,97219.06
2022-10-02T12:49:01.771Z,97212.63
2022-10-02T12:54:43.166Z,97219.25
2022-10-02T12:59:57.688Z,97217.84
2022-10-02T13:05:22.662Z,97210.34
2022-10-02T13:10:32.175Z,97208.91
2022-10-02T13:15:52.267Z,97209.78
2022-10-02T13:21:02.681Z,97217.22
2022-10-02T13:26:16.134Z,97205.91
2022-10-02T13:31:50.410Z,97214.84
2022-10-02T13:37:35.340Z,97193.00
2022-10-02T13:43:03.200Z,97196.03
2022-10-02T13:48:12.611Z,97190.44
2022-10-02T13:53:42.962Z,97195.13
2022-10-02T13:59:13.369Z,97191.31
2022-10-02T14:04:31.906Z,97192.25
2022-10-02T14:09:59.468Z,97182.63
2022-10-02T14:15:08.396Z,97173.91
2022-10-02T14:20:27.713Z,97172.97
2022-10-02T14:26:06.874Z,97159.94
2022-10-02T14:31:16.806Z,97152.06
2022-10-02T14:36:31.148Z,97144.16
2022-10-02T14:41:49.506Z,97149.19
2022-10-02T14:47:31.382Z,97151.78
2022-10-02T14:52:49.603Z,97141.81
2022-10-02T14:58:01.126Z,97136.38
2022-10-02T15:03:22.872Z,97135.91
2022-10-02T15:08:54.198Z,97128.19
2022-10-02T15:14:43.971Z,97127.94
2022-10-02T15:20:15.041Z,97114.41
2022-10-02T15:25:49.140Z,97119.72
2022-10-02T15:31:26.640Z,97124.88
2022-10-02T15:36:45.770Z,97113.59
2022-10-02T15:42:10.606Z,97130.66
2022-10-02T15:47:45.728Z,97138.22
2022-10-02T15:53:26.812Z,97151.69
2022-10-02T15:59:07.081Z,97151.69
2022-10-02T16:04:44.010Z,97148.66
2022-10-02T16:10:19.552Z,97148.50
2022-10-02T16:15:36.464Z,97154.09
2022-10-02T16:20:58.130Z,97157.00
2022-10-02T16:26:07.374Z,97152.50
2022-10-02T16:31:37.551Z,97152.66
2022-10-02T16:37:27.206Z,97151.38
2022-10-02T16:43:09.767Z,97162.91
2022-10-02T16:48:26.767Z,97163.84
2022-10-02T16:53:36.450Z,97162.22
2022-10-02T16:58:49.485Z,97172.34
2022-10-02T17:04:14.561Z,97173.00
2022-10-02T17:09:21.566Z,97168.97
2022-10-02T17:14:45.668Z,97169.91
2022-10-02T17:20:03.789Z,97166.69
2022-10-02T17:25:25.286Z,97153.38
2022-10-02T17:30:43.676Z,97152.56
2022-10-02T17:36:01.527Z,97153.50
2022-10-02T17:41:35.404Z,97149.63
2022-10-02T17:46:57.443Z,97143.84
2022-10-02T17:52:32.967Z,97143.78
2022-10-02T17:58:02.200Z,97143.63
2022-10-02T18:03:24.068Z,97152.56
2022-10-02T18:08:41.355Z,97147.56
2022-10-02T18:14:02.943Z,97148.19
2022-10-02T18:19:31.906Z,97139.78
2022-10-02T18:24:52.921Z,97143.66
2022-10-02T18:30:12.685Z,97142.03
2022-10-02T18:35:31.621Z,97136.72
2022-10-02T18:40:53.261Z,97138.16
2022-10-02T18:46:11.799Z,97133.31
2022-10-02T18:51:28.859Z,97130.91
2022-10-02T18:57:02.859Z,97129.31
2022-10-02T19:02:23.010Z,97117.91
2022-10-02T19:07:35.974Z,97118.53
2022-10-02T19:12:43.353Z,97111.47
2022-10-02T19:17:58.320Z,97112.59
2022-10-02T19:23:03.093Z,97109.34
2022-10-02T19:28:06.724Z,97111.28
2022-10-02T19:33:20.784Z,97120.56
2022-10-02T19:38:36.660Z,97121.69
2022-10-02T19:44:03.364Z,97122.03
2022-10-02T19:49:08.750Z,97118.50
2022-10-02T19:54:27.290Z,97114.44
2022-10-02T19:59:48.884Z,97106.25
2022-10-02T20:05:00.338Z,97106.91
2022-10-02T20:10:36.341Z,97098.72
2022-10-02T20:15:49.135Z,97097.72
2022-10-02T20:21:00.318Z,97085.69
2022-10-02T20:26:08.611Z,97085.22
2022-10-02T20:31:25.145Z,97086.66
2022-10-02T20:36:55.256Z,97077.97
2022-10-02T20:42:06.824Z,97079.09
2022-10-02T20:47:27.837Z,97079.41
2022-10-02T20:53:02.114Z,97078.94
2022-10-02T20:58:35.355Z,97070.75
2022-10-02T21:04:00.239Z,97060.13
2022-10-02T21:09:37.238Z,97059.16
2022-10-02T21:14:46.373Z,97063.00
2022-10-02T21:20:27.512Z,97055.44
2022-10-02T21:25:54.954Z,97054.97
2022-10-02T21:31:39.304Z,97048.19
2022-10-02T21:36:47.503Z,97044.66
2022-10-02T21:41:50.687Z,97047.72
2022-10-02T21:47:33.501Z,97050.44
2022-10-02T21:52:59.256Z,97043.47
2022-10-02T21:58:54.532Z,97035.09
2022-10-02T22:04:13.254Z,97037.84
2022-10-02T22:09:32.830Z,97025.66
2022-10-02T22:14:41.641Z,97026.75
2022-10-02T22:19:50.713Z,97037.19
2022-10-02T22:25:36.538Z,97036.66
2022-10-02T22:31:20.562Z,97032.34
2022-10-02T22:37:15.207Z,97032.81
2022-10-02T22:42:38.688Z,97020.63
2022-10-02T22:47:58.277Z,97021.28
2022-10-02T22:53:15.289Z,97011.19
2022-10-02T22:58:30.866Z,97007.66
2022-10-02T23:03:42.688Z,97010.22
2022-10-02T23:08:51.756Z,97002.72
2022-10-02T23:14:02.743Z,96986.56
2022-10-02T23:19:18.907Z,96983.53
2022-10-02T23:24:32.062Z,96977.28
2022-10-02T23:29:54.297Z,96981.59
2022-10-02T23:35:01.521Z,96983.78
2022-10-02T23:40:15.660Z,96978.16
2022-10-02T23:45:44.551Z,96972.34
2022-10-02T23:51:25.435Z,96972.28
2022-10-02T23:56:46.782Z,96969.22
